sensor_id;sensor_type;location;lat;lon;timestamp;pressure;altitude;pressure_sealevel;temperature;humidity
34931;BME280;21134;49.646;8.560;2023-02-20T00:01:45;101618.69;;;9.30;91.09
34931;BME280;21134;49.646;8.560;2023-02-20T00:04:12;101615.22;;;9.26;91.52
34931;BME280;21134;49.646;8.560;2023-02-20T00:06:38;101618.56;;;9.24;91.33
34931;BME280;21134;49.646;8.560;2023-02-20T00:09:04;101603.16;;;9.21;91.30
34931;BME280;21134;49.646;8.560;2023-02-20T00:11:31;101604.00;;;9.20;91.83
34931;BME280;21134;49.646;8.560;2023-02-20T00:13:57;101600.63;;;9.21;91.31
34931;BME280;21134;49.646;8.560;2023-02-20T00:16:24;101604.00;;;9.20;91.73
34931;BME280;21134;49.646;8.560;2023-02-20T00:18:52;101596.28;;;9.18;91.25
34931;BME280;21134;49.646;8.560;2023-02-20T00:21:18;101601.41;;;9.18;91.08
34931;BME280;21134;49.646;8.560;2023-02-20T00:23:45;101588.69;;;9.21;89.67
34931;BME280;21134;49.646;8.560;2023-02-20T00:26:12;101594.75;;;9.25;88.26
34931;BME280;21134;49.646;8.560;2023-02-20T00:28:40;101589.53;;;9.20;88.18
34931;BME280;21134;49.646;8.560;2023-02-20T00:31:10;101583.59;;;9.21;88.27
34931;BME280;21134;49.646;8.560;2023-02-20T00:33:37;101584.38;;;9.17;88.53
34931;BME280;21134;49.646;8.560;2023-02-20T00:36:05;101586.06;;;9.17;88.02
34931;BME280;21134;49.646;8.560;2023-02-20T00:38:32;101584.22;;;9.10;88.46
34931;BME280;21134;49.646;8.560;2023-02-20T00:40:58;101587.41;;;9.01;88.42
34931;BME280;21134;49.646;8.560;2023-02-20T00:43:25;101583.91;;;8.97;88.80
34931;BME280;21134;49.646;8.560;2023-02-20T00:45:53;101581.16;;;8.88;88.85
34931;BME280;21134;49.646;8.560;2023-02-20T00:48:20;101577.66;;;8.84;88.35
34931;BME280;21134;49.646;8.560;2023-02-20T00:50:46;101581.88;;;8.82;87.13
34931;BME280;21134;49.646;8.560;2023-02-20T00:53:14;101580.84;;;8.76;87.58
34931;BME280;21134;49.646;8.560;2023-02-20T00:55:40;101577.38;;;8.72;87.78
34931;BME280;21134;49.646;8.560;2023-02-20T00:58:07;101584.00;;;8.66;87.57
34931;BME280;21134;49.646;8.560;2023-02-20T01:00:33;101573.69;;;8.61;87.32
34931;BME280;21134;49.646;8.560;2023-02-20T01:03:00;101574.34;;;8.52;87.69
34931;BME280;21134;49.646;8.560;2023-02-20T01:05:26;101572.50;;;8.48;87.62
34931;BME280;21134;49.646;8.560;2023-02-20T01:07:53;101580.81;;;8.40;87.51
34931;BME280;21134;49.646;8.560;2023-02-20T01:10:20;101569.72;;;8.39;87.70
34931;BME280;21134;49.646;8.560;2023-02-20T01:12:47;101571.16;;;8.29;87.32
34931;BME280;21134;49.646;8.560;2023-02-20T01:15:14;101577.75;;;8.21;87.28
34931;BME280;21134;49.646;8.560;2023-02-20T01:17:41;101586.00;;;8.12;87.33
34931;BME280;21134;49.646;8.560;2023-02-20T01:20:08;101586.59;;;8.02;87.81
34931;BME280;21134;49.646;8.560;2023-02-20T01:22:35;101582.09;;;7.93;88.20
34931;BME280;21134;49.646;8.560;2023-02-20T01:25:01;101587.88;;;7.86;88.00
34931;BME280;21134;49.646;8.560;2023-02-20T01:27:29;101585.13;;;7.80;88.55
34931;BME280;21134;49.646;8.560;2023-02-20T01:29:56;101583.25;;;7.73;87.87
34931;BME280;21134;49.646;8.560;2023-02-20T01:32:22;101580.56;;;7.68;88.54
34931;BME280;21134;49.646;8.560;2023-02-20T01:34:49;101574.59;;;7.68;88.36
34931;BME280;21134;49.646;8.560;2023-02-20T01:37:15;101579.53;;;7.62;86.89
34931;BME280;21134;49.646;8.560;2023-02-20T01:39:42;101569.97;;;7.55;87.10
34931;BME280;21134;49.646;8.560;2023-02-20T01:42:15;101582.50;;;7.47;88.00
34931;BME280;21134;49.646;8.560;2023-02-20T01:44:44;101572.00;;;7.36;88.86
34931;BME280;21134;49.646;8.560;2023-02-20T01:47:14;101576.00;;;7.28;88.56
34931;BME280;21134;49.646;8.560;2023-02-20T01:49:45;101581.56;;;7.15;89.14
34931;BME280;21134;49.646;8.560;2023-02-20T01:52:16;101577.91;;;7.08;88.84
34931;BME280;21134;49.646;8.560;2023-02-20T01:54:48;101572.81;;;7.07;88.55
34931;BME280;21134;49.646;8.560;2023-02-20T01:57:19;101576.66;;;6.94;89.84
34931;BME280;21134;49.646;8.560;2023-02-20T01:59:49;101584.53;;;6.76;89.88
34931;BME280;21134;49.646;8.560;2023-02-20T02:02:17;101568.13;;;6.66;90.40
34931;BME280;21134;49.646;8.560;2023-02-20T02:04:46;101575.56;;;6.60;91.31
34931;BME280;21134;49.646;8.560;2023-02-20T02:07:14;101572.13;;;6.58;90.92
34931;BME280;21134;49.646;8.560;2023-02-20T02:09:47;101571.19;;;6.56;92.16
34931;BME280;21134;49.646;8.560;2023-02-20T02:12:15;101575.28;;;6.51;91.37
34931;BME280;21134;49.646;8.560;2023-02-20T02:14:41;101561.53;;;6.46;91.64
34931;BME280;21134;49.646;8.560;2023-02-20T02:17:22;101556.34;;;6.43;91.35
34931;BME280;21134;49.646;8.560;2023-02-20T02:20:29;101554.06;;;6.50;92.59
34931;BME280;21134;49.646;8.560;2023-02-20T02:26:32;101551.06;;;6.37;92.01
34931;BME280;21134;49.646;8.560;2023-02-20T02:29:31;101538.88;;;6.26;92.87
34931;BME280;21134;49.646;8.560;2023-02-20T02:35:29;101540.34;;;6.20;93.15
34931;BME280;21134;49.646;8.560;2023-02-20T02:38:07;101530.88;;;6.16;93.34
34931;BME280;21134;49.646;8.560;2023-02-20T02:40:40;101527.31;;;6.11;92.86
34931;BME280;21134;49.646;8.560;2023-02-20T02:43:15;101528.94;;;6.09;93.06
34931;BME280;21134;49.646;8.560;2023-02-20T02:45:48;101524.44;;;6.00;93.16
34931;BME280;21134;49.646;8.560;2023-02-20T02:48:20;101531.88;;;5.95;93.17
34931;BME280;21134;49.646;8.560;2023-02-20T02:50:54;101521.56;;;5.92;93.39
34931;BME280;21134;49.646;8.560;2023-02-20T02:53:25;101535.88;;;5.90;93.46
34931;BME280;21134;49.646;8.560;2023-02-20T02:55:51;101522.78;;;5.78;93.72
34931;BME280;21134;49.646;8.560;2023-02-20T02:58:18;101539.50;;;5.71;94.01
34931;BME280;21134;49.646;8.560;2023-02-20T03:00:48;101536.00;;;5.69;94.09
34931;BME280;21134;49.646;8.560;2023-02-20T03:03:19;101533.16;;;5.60;94.40
34931;BME280;21134;49.646;8.560;2023-02-20T03:05:50;101539.69;;;5.53;95.45
34931;BME280;21134;49.646;8.560;2023-02-20T03:08:28;101542.44;;;5.59;95.05
34931;BME280;21134;49.646;8.560;2023-02-20T03:11:00;101539.72;;;5.55;95.62
34931;BME280;21134;49.646;8.560;2023-02-20T03:13:29;101533.03;;;5.57;96.05
34931;BME280;21134;49.646;8.560;2023-02-20T03:16:15;101542.13;;;5.52;95.65
34931;BME280;21134;49.646;8.560;2023-02-20T03:18:44;101535.13;;;5.45;96.21
34931;BME280;21134;49.646;8.560;2023-02-20T03:21:16;101526.31;;;5.35;95.90
34931;BME280;21134;49.646;8.560;2023-02-20T03:23:49;101517.72;;;5.31;96.79
34931;BME280;21134;49.646;8.560;2023-02-20T03:26:19;101521.75;;;5.26;96.49
34931;BME280;21134;49.646;8.560;2023-02-20T03:28:51;101520.88;;;5.26;96.10
34931;BME280;21134;49.646;8.560;2023-02-20T03:31:24;101518.47;;;5.29;96.26
34931;BME280;21134;49.646;8.560;2023-02-20T03:33:57;101525.06;;;5.24;96.68
34931;BME280;21134;49.646;8.560;2023-02-20T03:36:48;101513.03;;;5.20;96.38
34931;BME280;21134;49.646;8.560;2023-02-20T03:39:40;101524.63;;;5.13;96.69
34931;BME280;21134;49.646;8.560;2023-02-20T03:42:28;101516.78;;;5.07;97.07
34931;BME280;21134;49.646;8.560;2023-02-20T03:45:14;101527.63;;;5.03;97.79
34931;BME280;21134;49.646;8.560;2023-02-20T03:47:44;101537.03;;;5.05;97.57
34931;BME280;21134;49.646;8.560;2023-02-20T03:50:13;101531.03;;;5.03;98.57
34931;BME280;21134;49.646;8.560;2023-02-20T03:52:41;101540.31;;;5.03;98.77
34931;BME280;21134;49.646;8.560;2023-02-20T03:55:08;101534.38;;;5.02;98.54
34931;BME280;21134;49.646;8.560;2023-02-20T03:57:37;101542.00;;;5.02;98.74
34931;BME280;21134;49.646;8.560;2023-02-20T04:00:07;101544.41;;;4.99;98.65
34931;BME280;21134;49.646;8.560;2023-02-20T04:02:39;101541.00;;;4.99;98.53
34931;BME280;21134;49.646;8.560;2023-02-20T04:05:10;101538.34;;;4.96;98.50
34931;BME280;21134;49.646;8.560;2023-02-20T04:07:42;101542.34;;;4.89;98.64
34931;BME280;21134;49.646;8.560;2023-02-20T04:10:15;101543.19;;;4.89;99.62
34931;BME280;21134;49.646;8.560;2023-02-20T04:12:45;101553.22;;;4.86;99.35
34931;BME280;21134;49.646;8.560;2023-02-20T04:15:13;101544.75;;;4.86;99.64
34931;BME280;21134;49.646;8.560;2023-02-20T04:17:44;101543.06;;;4.86;99.65
34931;BME280;21134;49.646;8.560;2023-02-20T04:20:12;101537.03;;;4.83;98.94
34931;BME280;21134;49.646;8.560;2023-02-20T04:22:42;101537.72;;;4.79;99.47
34931;BME280;21134;49.646;8.560;2023-02-20T04:25:17;101547.66;;;4.74;99.25
34931;BME280;21134;49.646;8.560;2023-02-20T04:27:46;101545.81;;;4.70;99.27
34931;BME280;21134;49.646;8.560;2023-02-20T04:30:13;101547.34;;;4.66;99.46
34931;BME280;21134;49.646;8.560;2023-02-20T04:32:39;101555.69;;;4.64;99.34
34931;BME280;21134;49.646;8.560;2023-02-20T04:35:08;101541.09;;;4.58;99.79
34931;BME280;21134;49.646;8.560;2023-02-20T04:37:35;101543.50;;;4.55;99.64
34931;BME280;21134;49.646;8.560;2023-02-20T04:40:01;101537.59;;;4.55;99.54
34931;BME280;21134;49.646;8.560;2023-02-20T04:42:29;101542.66;;;4.55;99.42
34931;BME280;21134;49.646;8.560;2023-02-20T04:44:56;101539.94;;;4.50;99.23
34931;BME280;21134;49.646;8.560;2023-02-20T04:47:22;101534.13;;;4.53;99.68
34931;BME280;21134;49.646;8.560;2023-02-20T04:49:49;101536.16;;;4.61;99.21
34931;BME280;21134;49.646;8.560;2023-02-20T04:52:15;101539.25;;;4.54;99.70
34931;BME280;21134;49.646;8.560;2023-02-20T04:54:42;101537.53;;;4.53;99.89
34931;BME280;21134;49.646;8.560;2023-02-20T04:57:08;101540.72;;;4.49;99.88
34931;BME280;21134;49.646;8.560;2023-02-20T04:59:36;101547.44;;;4.47;99.60
34931;BME280;21134;49.646;8.560;2023-02-20T05:02:03;101550.63;;;4.43;100.00
34931;BME280;21134;49.646;8.560;2023-02-20T05:04:29;101556.56;;;4.43;100.00
34931;BME280;21134;49.646;8.560;2023-02-20T05:06:56;101552.25;;;4.41;100.00
34931;BME280;21134;49.646;8.560;2023-02-20T05:09:23;101557.97;;;4.37;100.00
34931;BME280;21134;49.646;8.560;2023-02-20T05:11:50;101555.28;;;4.34;100.00
34931;BME280;21134;49.646;8.560;2023-02-20T05:14:16;101556.25;;;4.36;100.00
34931;BME280;21134;49.646;8.560;2023-02-20T05:16:45;101552.88;;;4.37;100.00
34931;BME280;21134;49.646;8.560;2023-02-20T05:19:13;101551.25;;;4.37;100.00
34931;BME280;21134;49.646;8.560;2023-02-20T05:21:41;101541.38;;;4.43;100.00
34931;BME280;21134;49.646;8.560;2023-02-20T05:24:25;101544.06;;;4.48;100.00
34931;BME280;21134;49.646;8.560;2023-02-20T05:26:52;101545.78;;;4.49;100.00
34931;BME280;21134;49.646;8.560;2023-02-20T05:29:19;101546.47;;;4.45;100.00
34931;BME280;21134;49.646;8.560;2023-02-20T05:31:47;101544.88;;;4.47;100.00
34931;BME280;21134;49.646;8.560;2023-02-20T05:34:13;101540.69;;;4.48;100.00
34931;BME280;21134;49.646;8.560;2023-02-20T05:36:40;101552.53;;;4.49;100.00
34931;BME280;21134;49.646;8.560;2023-02-20T05:39:07;101540.56;;;4.45;100.00
34931;BME280;21134;49.646;8.560;2023-02-20T05:41:33;101546.31;;;4.40;100.00
34931;BME280;21134;49.646;8.560;2023-02-20T05:43:59;101547.94;;;4.40;100.00
34931;BME280;21134;49.646;8.560;2023-02-20T05:46:26;101543.66;;;4.37;100.00
34931;BME280;21134;49.646;8.560;2023-02-20T05:48:54;101532.97;;;4.45;100.00
34931;BME280;21134;49.646;8.560;2023-02-20T05:51:22;101543.22;;;4.48;100.00
34931;BME280;21134;49.646;8.560;2023-02-20T05:53:49;101534.88;;;4.50;100.00
34931;BME280;21134;49.646;8.560;2023-02-20T05:56:15;101531.78;;;4.57;100.00
34931;BME280;21134;49.646;8.560;2023-02-20T05:58:42;101529.25;;;4.57;100.00
34931;BME280;21134;49.646;8.560;2023-02-20T06:01:15;101535.19;;;4.58;100.00
34931;BME280;21134;49.646;8.560;2023-02-20T06:03:42;101539.31;;;4.56;100.00
34931;BME280;21134;49.646;8.560;2023-02-20T06:06:10;101536.00;;;4.57;100.00
34931;BME280;21134;49.646;8.560;2023-02-20T06:08:37;101535.91;;;4.55;100.00
34931;BME280;21134;49.646;8.560;2023-02-20T06:11:04;101532.34;;;4.50;100.00
34931;BME280;21134;49.646;8.560;2023-02-20T06:13:30;101536.72;;;4.54;100.00
34931;BME280;21134;49.646;8.560;2023-02-20T06:15:57;101524.09;;;4.56;100.00
34931;BME280;21134;49.646;8.560;2023-02-20T06:18:23;101517.31;;;4.55;100.00
34931;BME280;21134;49.646;8.560;2023-02-20T06:20:50;101515.63;;;4.55;100.00
34931;BME280;21134;49.646;8.560;2023-02-20T06:23:18;101527.31;;;4.52;100.00
34931;BME280;21134;49.646;8.560;2023-02-20T06:25:44;101532.47;;;4.53;100.00
34931;BME280;21134;49.646;8.560;2023-02-20T06:28:11;101524.66;;;4.49;100.00
34931;BME280;21134;49.646;8.560;2023-02-20T06:30:37;101532.34;;;4.50;100.00
34931;BME280;21134;49.646;8.560;2023-02-20T06:33:04;101536.41;;;4.47;100.00
34931;BME280;21134;49.646;8.560;2023-02-20T06:35:30;101541.47;;;4.47;100.00
34931;BME280;21134;49.646;8.560;2023-02-20T06:37:57;101539.38;;;4.57;100.00
34931;BME280;21134;49.646;8.560;2023-02-20T06:40:24;101544.31;;;4.54;100.00
34931;BME280;21134;49.646;8.560;2023-02-20T06:42:51;101542.72;;;4.56;100.00
34931;BME280;21134;49.646;8.560;2023-02-20T06:45:17;101540.97;;;4.55;100.00
34931;BME280;21134;49.646;8.560;2023-02-20T06:47:44;101533.34;;;4.54;100.00
34931;BME280;21134;49.646;8.560;2023-02-20T06:50:10;101536.72;;;4.54;100.00
34931;BME280;21134;49.646;8.560;2023-02-20T06:52:37;101530.84;;;4.55;100.00
34931;BME280;21134;49.646;8.560;2023-02-20T06:55:04;101534.44;;;4.60;100.00
34931;BME280;21134;49.646;8.560;2023-02-20T06:57:32;101537.09;;;4.63;100.00
34931;BME280;21134;49.646;8.560;2023-02-20T06:59:58;101529.97;;;4.76;100.00
34931;BME280;21134;49.646;8.560;2023-02-20T07:02:25;101538.44;;;4.76;100.00
34931;BME280;21134;49.646;8.560;2023-02-20T07:04:51;101547.72;;;4.76;100.00
34931;BME280;21134;49.646;8.560;2023-02-20T07:07:18;101552.81;;;4.76;100.00
34931;BME280;21134;49.646;8.560;2023-02-20T07:09:44;101551.13;;;4.76;100.00
34931;BME280;21134;49.646;8.560;2023-02-20T07:12:11;101552.81;;;4.76;100.00
34931;BME280;21134;49.646;8.560;2023-02-20T07:14:38;101552.84;;;4.77;100.00
34931;BME280;21134;49.646;8.560;2023-02-20T07:17:05;101556.38;;;4.81;100.00
34931;BME280;21134;49.646;8.560;2023-02-20T07:19:31;101552.94;;;4.79;100.00
34931;BME280;21134;49.646;8.560;2023-02-20T07:21:58;101558.22;;;4.85;100.00
34931;BME280;21134;49.646;8.560;2023-02-20T07:24:24;101553.81;;;4.81;100.00
34931;BME280;21134;49.646;8.560;2023-02-20T07:26:51;101559.09;;;4.85;100.00
34931;BME280;21134;49.646;8.560;2023-02-20T07:29:17;101555.78;;;4.88;100.00
34931;BME280;21134;49.646;8.560;2023-02-20T07:31:45;101562.78;;;4.94;100.00
34931;BME280;21134;49.646;8.560;2023-02-20T07:34:11;101567.97;;;4.97;100.00
34931;BME280;21134;49.646;8.560;2023-02-20T07:36:39;101563.25;;;5.06;100.00
34931;BME280;21134;49.646;8.560;2023-02-20T07:39:06;101554.06;;;5.08;100.00
34931;BME280;21134;49.646;8.560;2023-02-20T07:41:32;101550.00;;;5.13;100.00
34931;BME280;21134;49.646;8.560;2023-02-20T07:44:00;101550.31;;;5.21;100.00
34931;BME280;21134;49.646;8.560;2023-02-20T07:46:26;101548.25;;;5.33;100.00
34931;BME280;21134;49.646;8.560;2023-02-20T07:48:59;101532.53;;;5.43;100.00
34931;BME280;21134;49.646;8.560;2023-02-20T07:51:26;101548.16;;;5.54;100.00
34931;BME280;21134;49.646;8.560;2023-02-20T07:53:52;101534.28;;;5.68;100.00
34931;BME280;21134;49.646;8.560;2023-02-20T07:56:20;101540.69;;;5.81;100.00
34931;BME280;21134;49.646;8.560;2023-02-20T07:58:48;101534.41;;;5.95;100.00
34931;BME280;21134;49.646;8.560;2023-02-20T08:01:15;101535.06;;;6.14;100.00
34931;BME280;21134;49.646;8.560;2023-02-20T08:03:42;101537.63;;;6.15;100.00
34931;BME280;21134;49.646;8.560;2023-02-20T08:06:10;101538.56;;;6.17;100.00
34931;BME280;21134;49.646;8.560;2023-02-20T08:08:37;101530.38;;;6.26;100.00
34931;BME280;21134;49.646;8.560;2023-02-20T08:11:04;101528.00;;;6.31;100.00
34931;BME280;21134;49.646;8.560;2023-02-20T08:13:30;101531.59;;;6.37;100.00
34931;BME280;21134;49.646;8.560;2023-02-20T08:15:56;101529.66;;;6.56;100.00
34931;BME280;21134;49.646;8.560;2023-02-20T08:18:23;101527.34;;;6.63;100.00
34931;BME280;21134;49.646;8.560;2023-02-20T08:20:49;101533.41;;;6.67;99.66
34931;BME280;21134;49.646;8.560;2023-02-20T08:23:19;101527.81;;;6.77;100.00
34931;BME280;21134;49.646;8.560;2023-02-20T08:25:46;101528.22;;;6.91;100.00
34931;BME280;21134;49.646;8.560;2023-02-20T08:28:13;101518.34;;;7.02;99.14
34931;BME280;21134;49.646;8.560;2023-02-20T08:30:39;101516.94;;;7.11;97.90
34931;BME280;21134;49.646;8.560;2023-02-20T08:33:06;101511.84;;;7.11;98.78
34931;BME280;21134;49.646;8.560;2023-02-20T08:35:32;101507.97;;;7.24;97.87
34931;BME280;21134;49.646;8.560;2023-02-20T08:37:59;101511.91;;;7.41;96.76
34931;BME280;21134;49.646;8.560;2023-02-20T08:40:27;101505.94;;;7.41;95.52
34931;BME280;21134;49.646;8.560;2023-02-20T08:42:54;101498.34;;;7.42;96.01
34931;BME280;21134;49.646;8.560;2023-02-20T08:45:20;101495.97;;;7.49;95.71
34931;BME280;21134;49.646;8.560;2023-02-20T08:47:47;101491.91;;;7.55;96.14
34931;BME280;21134;49.646;8.560;2023-02-20T08:50:14;101491.47;;;7.72;95.35
34931;BME280;21134;49.646;8.560;2023-02-20T08:52:41;101490.88;;;7.80;95.86
34931;BME280;21134;49.646;8.560;2023-02-20T08:55:08;101492.91;;;7.92;94.78
34931;BME280;21134;49.646;8.560;2023-02-20T08:57:36;101491.69;;;8.12;93.18
34931;BME280;21134;49.646;8.560;2023-02-20T09:00:04;101491.25;;;8.29;93.40
34931;BME280;21134;49.646;8.560;2023-02-20T09:02:31;101484.00;;;8.43;91.70
34931;BME280;21134;49.646;8.560;2023-02-20T09:04:58;101485.84;;;8.50;91.25
34931;BME280;21134;49.646;8.560;2023-02-20T09:07:24;101477.38;;;8.51;91.66
34931;BME280;21134;49.646;8.560;2023-02-20T09:09:51;101476.66;;;8.58;92.04
34931;BME280;21134;49.646;8.560;2023-02-20T09:12:17;101475.19;;;8.68;91.48
34931;BME280;21134;49.646;8.560;2023-02-20T09:14:45;101475.44;;;8.78;91.35
34931;BME280;21134;49.646;8.560;2023-02-20T09:17:12;101473.91;;;8.87;90.91
34931;BME280;21134;49.646;8.560;2023-02-20T09:19:38;101469.69;;;8.87;89.85
34931;BME280;21134;49.646;8.560;2023-02-20T09:22:05;101468.88;;;8.90;90.73
34931;BME280;21134;49.646;8.560;2023-02-20T09:24:31;101468.22;;;8.98;90.94
34931;BME280;21134;49.646;8.560;2023-02-20T09:26:59;101467.38;;;8.99;90.91
34931;BME280;21134;49.646;8.560;2023-02-20T09:29:27;101470.38;;;9.19;88.43
34931;BME280;21134;49.646;8.560;2023-02-20T09:31:55;101457.22;;;9.43;86.24
34931;BME280;21134;49.646;8.560;2023-02-20T09:34:22;101463.84;;;9.34;86.96
34931;BME280;21134;49.646;8.560;2023-02-20T09:36:49;101458.06;;;9.42;85.87
34931;BME280;21134;49.646;8.560;2023-02-20T09:39:15;101461.66;;;9.53;85.15
34931;BME280;21134;49.646;8.560;2023-02-20T09:41:53;101454.91;;;9.57;84.87
34931;BME280;21134;49.646;8.560;2023-02-20T09:44:32;101459.50;;;9.73;84.52
34931;BME280;21134;49.646;8.560;2023-02-20T09:47:07;101453.06;;;9.97;82.27
34931;BME280;21134;49.646;8.560;2023-02-20T09:49:44;101459.22;;;10.08;82.25
34931;BME280;21134;49.646;8.560;2023-02-20T09:52:13;101450.72;;;10.09;81.67
34931;BME280;21134;49.646;8.560;2023-02-20T09:54:45;101453.63;;;10.28;80.70
34931;BME280;21134;49.646;8.560;2023-02-20T09:57:15;101452.91;;;10.38;80.21
34931;BME280;21134;49.646;8.560;2023-02-20T09:59:47;101456.47;;;10.49;80.07
34931;BME280;21134;49.646;8.560;2023-02-20T10:02:18;101451.41;;;10.52;79.86
34931;BME280;21134;49.646;8.560;2023-02-20T10:04:48;101445.47;;;10.53;79.21
34931;BME280;21134;49.646;8.560;2023-02-20T10:07:23;101443.81;;;10.57;79.61
34931;BME280;21134;49.646;8.560;2023-02-20T10:09:51;101442.06;;;10.56;79.21
34931;BME280;21134;49.646;8.560;2023-02-20T10:12:23;101438.75;;;10.60;78.43
34931;BME280;21134;49.646;8.560;2023-02-20T10:15:12;101427.22;;;10.92;76.98
34931;BME280;21134;49.646;8.560;2023-02-20T10:17:53;101428.13;;;10.94;77.00
34931;BME280;21134;49.646;8.560;2023-02-20T10:20:30;101419.63;;;11.00;76.60
34931;BME280;21134;49.646;8.560;2023-02-20T10:23:09;101424.78;;;11.02;77.33
34931;BME280;21134;49.646;8.560;2023-02-20T10:25:38;101415.66;;;11.25;74.43
34931;BME280;21134;49.646;8.560;2023-02-20T10:28:09;101415.72;;;11.30;74.31
34931;BME280;21134;49.646;8.560;2023-02-20T10:30:40;101424.41;;;11.44;74.42
34931;BME280;21134;49.646;8.560;2023-02-20T10:33:16;101426.03;;;11.36;74.64
34931;BME280;21134;49.646;8.560;2023-02-20T10:35:49;101420.16;;;11.46;73.93
34931;BME280;21134;49.646;8.560;2023-02-20T10:38:20;101417.69;;;11.55;73.79
34931;BME280;21134;49.646;8.560;2023-02-20T10:40:50;101424.44;;;11.47;74.16
34931;BME280;21134;49.646;8.560;2023-02-20T10:43:27;101420.22;;;11.54;73.56
34931;BME280;21134;49.646;8.560;2023-02-20T10:46:04;101423.72;;;11.60;72.89
34931;BME280;21134;49.646;8.560;2023-02-20T10:48:34;101414.38;;;11.66;72.17
34931;BME280;21134;49.646;8.560;2023-02-20T10:51:05;101412.75;;;11.75;72.50
34931;BME280;21134;49.646;8.560;2023-02-20T10:53:38;101406.06;;;11.90;71.40
34931;BME280;21134;49.646;8.560;2023-02-20T10:56:11;101408.69;;;11.99;71.80
34931;BME280;21134;49.646;8.560;2023-02-20T10:58:44;101405.28;;;11.98;71.65
34931;BME280;21134;49.646;8.560;2023-02-20T11:01:18;101396.69;;;11.92;71.68
34931;BME280;21134;49.646;8.560;2023-02-20T11:03:51;101398.50;;;12.03;71.18
34931;BME280;21134;49.646;8.560;2023-02-20T11:06:24;101400.22;;;12.09;71.07
34931;BME280;21134;49.646;8.560;2023-02-20T11:08:52;101388.31;;;12.17;71.17
34931;BME280;21134;49.646;8.560;2023-02-20T11:11:25;101390.00;;;12.15;71.01
34931;BME280;21134;49.646;8.560;2023-02-20T11:13:53;101382.47;;;12.35;69.51
34931;BME280;21134;49.646;8.560;2023-02-20T11:16:24;101391.88;;;12.39;68.70
34931;BME280;21134;49.646;8.560;2023-02-20T11:19:01;101388.44;;;12.36;68.79
34931;BME280;21134;49.646;8.560;2023-02-20T11:21:37;101392.88;;;12.61;68.21
34931;BME280;21134;49.646;8.560;2023-02-20T11:27:04;101377.47;;;12.66;67.83
34931;BME280;21134;49.646;8.560;2023-02-20T11:29:41;101371.50;;;12.71;68.32
34931;BME280;21134;49.646;8.560;2023-02-20T11:32:24;101365.59;;;12.89;66.69
34931;BME280;21134;49.646;8.560;2023-02-20T11:35:11;101363.09;;;13.15;62.79
34931;BME280;21134;49.646;8.560;2023-02-20T11:37:40;101355.47;;;13.24;61.48
34931;BME280;21134;49.646;8.560;2023-02-20T11:40:14;101361.44;;;13.26;60.53
34931;BME280;21134;49.646;8.560;2023-02-20T11:42:41;101356.31;;;13.30;59.74
34931;BME280;21134;49.646;8.560;2023-02-20T11:45:14;101349.44;;;13.27;60.48
34931;BME280;21134;49.646;8.560;2023-02-20T11:47:42;101346.03;;;13.39;61.25
34931;BME280;21134;49.646;8.560;2023-02-20T11:50:16;101349.47;;;13.44;60.21
34931;BME280;21134;49.646;8.560;2023-02-20T11:53:00;101328.91;;;13.48;59.39
34931;BME280;21134;49.646;8.560;2023-02-20T11:55:29;101326.34;;;13.58;59.86
34931;BME280;21134;49.646;8.560;2023-02-20T11:57:56;101326.34;;;13.64;58.23
34931;BME280;21134;49.646;8.560;2023-02-20T12:00:24;101317.78;;;13.63;57.99
34931;BME280;21134;49.646;8.560;2023-02-20T12:02:54;101311.78;;;13.57;59.69
34931;BME280;21134;49.646;8.560;2023-02-20T12:05:36;101310.06;;;13.69;59.32
34931;BME280;21134;49.646;8.560;2023-02-20T12:08:19;101314.34;;;13.77;57.96
34931;BME280;21134;49.646;8.560;2023-02-20T12:10:51;101304.03;;;13.77;58.45
34931;BME280;21134;49.646;8.560;2023-02-20T12:13:19;101300.59;;;13.84;58.61
34931;BME280;21134;49.646;8.560;2023-02-20T12:15:51;101291.16;;;13.98;57.20
34931;BME280;21134;49.646;8.560;2023-02-20T12:18:35;101291.97;;;14.11;56.56
34931;BME280;21134;49.646;8.560;2023-02-20T12:21:26;101288.56;;;14.10;55.60
34931;BME280;21134;49.646;8.560;2023-02-20T12:24:04;101292.81;;;14.10;54.88
34931;BME280;21134;49.646;8.560;2023-02-20T12:26:41;101295.44;;;14.02;56.21
34931;BME280;21134;49.646;8.560;2023-02-20T12:29:21;101283.44;;;13.96;55.79
34931;BME280;21134;49.646;8.560;2023-02-20T12:32:00;101278.28;;;13.96;56.52
34931;BME280;21134;49.646;8.560;2023-02-20T12:34:45;101272.25;;;14.04;56.08
34931;BME280;21134;49.646;8.560;2023-02-20T12:37:18;101270.50;;;14.24;55.25
34931;BME280;21134;49.646;8.560;2023-02-20T12:39:56;101260.97;;;14.41;53.24
34931;BME280;21134;49.646;8.560;2023-02-20T12:42:35;101260.97;;;14.41;53.32
34931;BME280;21134;49.646;8.560;2023-02-20T12:45:24;101264.38;;;14.47;52.10
34931;BME280;21134;49.646;8.560;2023-02-20T12:48:02;101248.06;;;14.45;53.65
34931;BME280;21134;49.646;8.560;2023-02-20T12:50:41;101241.19;;;14.45;54.28
34931;BME280;21134;49.646;8.560;2023-02-20T12:53:39;101240.34;;;14.51;54.33
34931;BME280;21134;49.646;8.560;2023-02-20T12:56:19;101231.75;;;14.55;52.03
34931;BME280;21134;49.646;8.560;2023-02-20T12:58:54;101244.63;;;14.59;52.39
34931;BME280;21134;49.646;8.560;2023-02-20T13:01:23;101234.31;;;14.56;52.97
34931;BME280;21134;49.646;8.560;2023-02-20T13:03:57;101230.91;;;14.50;52.45
34931;BME280;21134;49.646;8.560;2023-02-20T13:06:32;101228.22;;;14.70;52.44
34931;BME280;21134;49.646;8.560;2023-02-20T13:09:06;101238.53;;;14.70;52.07
34931;BME280;21134;49.646;8.560;2023-02-20T13:11:41;101233.41;;;14.68;51.44
34931;BME280;21134;49.646;8.560;2023-02-20T13:14:22;101232.59;;;14.58;52.75
34931;BME280;21134;49.646;8.560;2023-02-20T13:16:56;101230.78;;;14.73;52.04
34931;BME280;21134;49.646;8.560;2023-02-20T13:19:29;101225.63;;;14.73;51.29
34931;BME280;21134;49.646;8.560;2023-02-20T13:21:59;101231.66;;;14.75;52.48